Time,TemperatureF,DewpointF,PressureIn,WindDirection,WindDirectionDegrees,WindSpeedMPH,WindSpeedGustMPH,Humidity,HourlyPrecipIn,Conditions,Clouds,dailyrainin,SoftwareType,DateUTC
2013-02-16 00:00:00,30.3,26.9,30.24,ENE,78,0.0,0.0,87,0.00,,CLR,0.01,VWS V14.01,2013-02-16 08:00:00,
2013-02-16 00:05:00,30.3,26.9,30.23,ENE,78,0.0,0.0,87,0.00,,CLR,0.00,VWS V14.01,2013-02-16 08:05:00,
2013-02-16 00:10:00,30.3,26.9,30.23,ENE,78,0.0,0.0,87,0.00,,CLR,0.00,VWS V14.01,2013-02-16 08:10:00,
2013-02-16 00:15:00,30.3,26.9,30.23,ENE,78,0.0,0.0,87,0.00,,CLR,0.00,VWS V14.01,2013-02-16 08:15:00,
2013-02-16 00:20:00,30.8,27.4,30.23,ENE,78,0.0,0.0,87,0.00,,CLR,0.00,VWS V14.01,2013-02-16 08:20:00,
2013-02-16 00:25:00,31.0,27.6,30.23,ENE,78,0.0,0.0,87,0.00,,CLR,0.00,VWS V14.01,2013-02-16 08:25:00,
2013-02-16 00:30:00,31.0,27.6,30.23,ENE,78,0.0,0.0,87,0.00,,CLR,0.00,VWS V14.01,2013-02-16 08:30:00,
2013-02-16 00:36:00,30.7,27.3,30.23,ENE,78,0.0,0.0,87,0.00,,CLR,0.00,VWS V14.01,2013-02-16 08:36:00,
2013-02-16 00:41:00,30.7,27.3,30.23,ENE,78,0.0,0.0,87,0.00,,CLR,0.00,VWS V14.01,2013-02-16 08:41:00,
2013-02-16 00:46:00,30.5,27.1,30.23,ENE,78,0.0,0.0,87,0.00,,CLR,0.00,VWS V14.01,2013-02-16 08:46:00,
2013-02-16 00:51:00,31.0,27.6,30.22,ENE,78,0.0,0.0,87,0.00,,CLR,0.00,VWS V14.01,2013-02-16 08:51:00,
2013-02-16 00:56:00,31.6,28.7,30.22,ENE,78,0.0,0.0,89,0.00,,CLR,0.00,VWS V14.01,2013-02-16 08:56:00,
2013-02-16 01:01:00,31.4,28.5,30.22,ENE,78,0.0,0.0,89,0.00,,CLR,0.00,VWS V14.01,2013-02-16 09:01:00,
2013-02-16 01:06:00,31.4,28.5,30.22,ENE,78,0.0,0.0,89,0.00,,CLR,0.00,VWS V14.01,2013-02-16 09:06:00,
2013-02-16 01:11:00,30.8,28.0,30.22,ENE,78,0.0,0.0,89,0.00,,CLR,0.00,VWS V14.01,2013-02-16 09:11:00,
2013-02-16 01:16:00,30.8,28.0,30.22,ENE,78,0.0,0.0,89,0.00,,CLR,0.00,VWS V14.01,2013-02-16 09:16:00,
2013-02-16 01:21:00,30.8,28.0,30.22,ENE,78,0.0,0.0,89,0.00,,CLR,0.00,VWS V14.01,2013-02-16 09:21:00,
2013-02-16 01:26:00,30.8,28.0,30.22,ENE,78,0.0,0.0,89,0.00,,CLR,0.00,VWS V14.01,2013-02-16 09:26:00,
2013-02-16 01:31:00,31.1,28.2,30.22,ENE,78,2.0,2.0,89,0.00,,CLR,0.00,VWS V14.01,2013-02-16 09:31:00,
2013-02-16 01:36:00,31.1,28.2,30.21,ENE,78,0.0,0.0,89,0.00,,CLR,0.00,VWS V14.01,2013-02-16 09:36:00,
2013-02-16 01:41:00,31.1,28.2,30.21,ENE,78,0.0,0.0,89,0.00,,CLR,0.00,VWS V14.01,2013-02-16 09:41:00,
2013-02-16 01:46:00,31.1,28.2,30.20,ENE,78,0.0,0.0,89,0.00,,CLR,0.00,VWS V14.01,2013-02-16 09:46:00,
2013-02-16 01:52:00,31.1,28.2,30.20,ENE,78,0.0,0.0,89,0.00,,CLR,0.00,VWS V14.01,2013-02-16 09:52:00,
2013-02-16 01:57:00,32.0,29.1,30.20,ENE,78,0.0,0.0,89,0.00,,CLR,0.00,VWS V14.01,2013-02-16 09:57:00,
2013-02-16 02:02:00,32.0,29.1,30.20,ENE,78,0.0,0.0,89,0.00,,CLR,0.00,VWS V14.01,2013-02-16 10:02:00,
2013-02-16 02:07:00,32.0,29.1,30.20,ENE,78,0.0,0.0,89,0.00,,CLR,0.00,VWS V14.01,2013-02-16 10:07:00,
2013-02-16 02:12:00,32.0,29.1,30.20,ENE,78,0.0,0.0,89,0.00,,CLR,0.00,VWS V14.01,2013-02-16 10:12:00,
2013-02-16 02:17:00,32.0,29.1,30.20,ENE,78,0.0,0.0,89,0.00,,CLR,0.00,VWS V14.01,2013-02-16 10:17:00,
2013-02-16 02:22:00,32.2,29.3,30.20,ENE,78,0.0,0.0,89,0.00,,CLR,0.00,VWS V14.01,2013-02-16 10:22:00,
2013-02-16 02:27:00,32.2,29.3,30.20,ENE,78,0.0,0.0,89,0.00,,CLR,0.00,VWS V14.01,2013-02-16 10:27:00,
2013-02-16 02:32:00,32.2,29.0,30.19,ENE,78,0.0,0.0,88,0.00,,CLR,0.00,VWS V14.01,2013-02-16 10:32:00,
2013-02-16 02:37:00,32.2,29.0,30.19,ENE,78,0.0,0.0,88,0.00,,CLR,0.00,VWS V14.01,2013-02-16 10:37:00,
2013-02-16 02:42:00,32.2,29.0,30.19,ENE,78,0.0,0.0,88,0.00,,CLR,0.00,VWS V14.01,2013-02-16 10:42:00,
2013-02-16 02:47:00,32.0,28.9,30.18,ENE,78,0.0,0.0,88,0.00,,CLR,0.00,VWS V14.01,2013-02-16 10:47:00,
2013-02-16 02:52:00,32.0,28.9,30.18,ENE,78,0.0,0.0,88,0.00,,CLR,0.00,VWS V14.01,2013-02-16 10:52:00,
2013-02-16 02:58:00,32.0,28.9,30.18,ENE,78,0.0,0.0,88,0.00,,CLR,0.00,VWS V14.01,2013-02-16 10:58:00,
2013-02-16 03:03:00,32.0,28.9,30.18,ENE,78,0.0,0.0,88,0.00,,CLR,0.00,VWS V14.01,2013-02-16 11:03:00,
2013-02-16 03:08:00,32.0,28.9,30.18,ENE,78,1.0,1.0,88,0.00,,CLR,0.00,VWS V14.01,2013-02-16 11:08:00,
2013-02-16 03:13:00,32.0,29.1,30.18,ENE,78,0.0,0.0,89,0.00,,CLR,0.00,VWS V14.01,2013-02-16 11:13:00,
2013-02-16 03:18:00,32.0,29.1,30.17,ENE,78,0.0,0.0,89,0.00,,CLR,0.00,VWS V14.01,2013-02-16 11:18:00,
2013-02-16 03:23:00,32.0,29.1,30.17,ENE,78,0.0,0.0,89,0.00,,CLR,0.00,VWS V14.01,2013-02-16 11:23:00,
2013-02-16 03:28:00,32.0,28.9,30.17,ENE,78,0.0,0.0,88,0.00,,CLR,0.00,VWS V14.01,2013-02-16 11:28:00,
2013-02-16 03:33:00,31.9,28.8,30.17,ENE,78,0.0,0.0,88,0.00,,CLR,0.00,VWS V14.01,2013-02-16 11:33:00,
2013-02-16 03:38:00,31.7,28.6,30.17,ENE,78,0.0,0.0,88,0.00,,CLR,0.00,VWS V14.01,2013-02-16 11:38:00,
2013-02-16 03:43:00,31.7,28.8,30.17,ENE,78,0.0,0.0,89,0.00,,CLR,0.00,VWS V14.01,2013-02-16 11:43:00,
2013-02-16 03:48:00,31.7,28.8,30.16,ENE,78,0.0,0.0,89,0.00,,CLR,0.00,VWS V14.01,2013-02-16 11:48:00,
2013-02-16 03:53:00,31.7,28.8,30.16,ENE,78,0.0,0.0,89,0.00,,CLR,0.00,VWS V14.01,2013-02-16 11:53:00,
2013-02-16 03:58:00,31.7,28.8,30.16,ENE,78,1.0,1.0,89,0.00,,CLR,0.00,VWS V14.01,2013-02-16 11:58:00,
2013-02-16 04:03:00,31.7,28.8,30.15,ENE,78,0.0,0.0,89,0.00,,CLR,0.00,VWS V14.01,2013-02-16 12:03:00,
2013-02-16 04:08:00,31.6,28.7,30.15,ENE,78,0.0,0.0,89,0.00,,CLR,0.00,VWS V14.01,2013-02-16 12:08:00,
2013-02-16 04:13:00,31.6,28.7,30.15,ENE,78,0.0,0.0,89,0.00,,CLR,0.00,VWS V14.01,2013-02-16 12:13:00,
2013-02-16 04:18:00,31.4,28.5,30.14,ENE,78,0.0,0.0,89,0.00,,CLR,0.00,VWS V14.01,2013-02-16 12:18:00,
2013-02-16 04:23:00,31.3,28.4,30.14,ENE,78,0.0,0.0,89,0.00,,CLR,0.00,VWS V14.01,2013-02-16 12:23:00,
2013-02-16 04:28:00,31.3,28.4,30.14,ENE,78,0.0,0.0,89,0.00,,CLR,0.00,VWS V14.01,2013-02-16 12:28:00,
2013-02-16 04:34:00,31.3,28.4,30.14,ENE,78,0.0,0.0,89,0.00,,CLR,0.00,VWS V14.01,2013-02-16 12:34:00,
2013-02-16 04:39:00,31.3,28.7,30.14,ENE,78,0.0,0.0,90,0.00,,CLR,0.00,VWS V14.01,2013-02-16 12:39:00,
2013-02-16 04:44:00,31.4,28.8,30.14,ENE,78,2.0,2.0,90,0.00,,CLR,0.00,VWS V14.01,2013-02-16 12:44:00,
2013-02-16 04:49:00,31.4,28.8,30.14,ENE,78,1.0,1.0,90,0.00,,CLR,0.00,VWS V14.01,2013-02-16 12:49:00,
2013-02-16 04:54:00,31.7,29.1,30.14,ENE,78,0.0,0.0,90,0.00,,CLR,0.00,VWS V14.01,2013-02-16 12:54:00,
2013-02-16 04:59:00,31.9,29.3,30.14,ENE,78,0.0,0.0,90,0.00,,CLR,0.00,VWS V14.01,2013-02-16 12:59:00,
2013-02-16 05:04:00,31.9,29.3,30.14,ENE,78,1.0,1.0,90,0.00,,CLR,0.00,VWS V14.01,2013-02-16 13:04:00,
2013-02-16 05:09:00,31.9,29.3,30.14,ENE,78,0.0,0.0,90,0.00,,CLR,0.00,VWS V14.01,2013-02-16 13:09:00,
2013-02-16 05:14:00,31.9,29.3,30.14,ENE,78,3.0,3.0,90,0.00,,CLR,0.00,VWS V14.01,2013-02-16 13:14:00,
2013-02-16 05:19:00,31.9,29.3,30.14,ENE,78,0.0,1.0,90,0.00,,CLR,0.00,VWS V14.01,2013-02-16 13:19:00,
2013-02-16 05:24:00,31.3,28.4,30.14,ENE,78,0.0,0.0,89,0.00,,CLR,0.00,VWS V14.01,2013-02-16 13:24:00,
2013-02-16 05:29:00,30.8,28.0,30.14,ENE,78,0.0,0.0,89,0.00,,CLR,0.00,VWS V14.01,2013-02-16 13:29:00,
2013-02-16 05:35:00,30.8,28.0,30.13,ENE,78,0.0,0.0,89,0.00,,CLR,0.00,VWS V14.01,2013-02-16 13:35:00,
2013-02-16 05:40:00,30.4,27.5,30.13,ENE,78,0.0,0.0,89,0.00,,CLR,0.00,VWS V14.01,2013-02-16 13:40:00,
2013-02-16 05:45:00,30.1,27.3,30.13,ENE,78,0.0,0.0,89,0.00,,CLR,0.00,VWS V14.01,2013-02-16 13:45:00,
2013-02-16 05:50:00,30.1,27.3,30.13,ENE,78,0.0,0.0,89,0.00,,CLR,0.00,VWS V14.01,2013-02-16 13:50:00,
2013-02-16 05:55:00,29.8,27.0,30.13,ENE,78,0.0,0.0,89,0.00,,CLR,0.00,VWS V14.01,2013-02-16 13:55:00,
2013-02-16 06:00:00,29.8,27.0,30.13,SE,127,0.0,0.0,89,0.00,,CLR,0.00,VWS V14.01,2013-02-16 14:00:00,
2013-02-16 06:05:00,29.7,26.9,30.13,ENE,78,0.0,0.0,89,0.00,,FEW060,0.00,VWS V14.01,2013-02-16 14:05:00,
2013-02-16 06:10:00,29.5,26.7,30.13,ENE,78,0.0,0.0,89,0.00,,FEW060,0.00,VWS V14.01,2013-02-16 14:10:00,
2013-02-16 06:15:00,29.5,26.7,30.13,ENE,78,0.0,0.0,89,0.00,,FEW060,0.00,VWS V14.01,2013-02-16 14:15:00,
2013-02-16 06:20:00,29.7,26.9,30.12,ENE,78,2.0,2.0,89,0.00,,FEW060,0.00,VWS V14.01,2013-02-16 14:20:00,
2013-02-16 06:25:00,29.7,26.9,30.12,ENE,78,2.0,2.0,89,0.00,,FEW060,0.00,VWS V14.01,2013-02-16 14:25:00,
2013-02-16 06:30:00,29.7,26.9,30.12,ENE,78,0.0,1.0,89,0.00,,FEW060,0.00,VWS V14.01,2013-02-16 14:30:00,
2013-02-16 06:35:00,30.0,27.2,30.11,ENE,78,2.0,2.0,89,0.00,,FEW060,0.00,VWS V14.01,2013-02-16 14:35:00,
2013-02-16 06:40:00,30.1,27.3,30.11,ENE,78,2.0,2.0,89,0.00,,FEW060,0.00,VWS V14.01,2013-02-16 14:40:00,
2013-02-16 06:46:00,30.1,27.3,30.11,ENE,78,0.0,0.0,89,0.00,,FEW060,0.00,VWS V14.01,2013-02-16 14:46:00,
2013-02-16 06:51:00,30.3,28.0,30.11,ENE,78,0.0,0.0,91,0.00,,FEW060,0.00,VWS V14.01,2013-02-16 14:51:00,
2013-02-16 06:56:00,30.3,28.0,30.11,East,92,1.0,5.0,91,0.00,,FEW060,0.00,VWS V14.01,2013-02-16 14:56:00,
2013-02-16 07:01:00,30.1,27.8,30.11,East,93,1.0,1.0,91,0.00,,FEW055,0.00,VWS V14.01,2013-02-16 15:01:00,
2013-02-16 07:06:00,29.8,27.5,30.11,East,93,1.0,2.0,91,0.00,,FEW055,0.00,VWS V14.01,2013-02-16 15:06:00,
2013-02-16 07:11:00,29.8,27.8,30.11,East,93,0.0,0.0,92,0.00,,FEW055,0.00,VWS V14.01,2013-02-16 15:11:00,
2013-02-16 07:16:00,29.8,27.8,30.11,East,93,0.0,0.0,92,0.00,,FEW055,0.00,VWS V14.01,2013-02-16 15:16:00,
2013-02-16 07:21:00,29.5,27.5,30.11,East,93,1.0,1.0,92,0.00,,FEW055,0.00,VWS V14.01,2013-02-16 15:21:00,
2013-02-16 07:26:00,29.5,27.5,30.11,East,93,0.0,0.0,92,0.00,,FEW055,0.00,VWS V14.01,2013-02-16 15:26:00,
2013-02-16 07:31:00,29.7,27.7,30.11,East,93,0.0,3.0,92,0.00,,FEW055,0.00,VWS V14.01,2013-02-16 15:31:00,
2013-02-16 07:36:00,29.8,27.8,30.11,East,93,0.0,0.0,92,0.00,,FEW055,0.00,VWS V14.01,2013-02-16 15:36:00,
2013-02-16 07:41:00,29.8,27.8,30.11,East,93,0.0,1.0,92,0.00,,FEW055,0.00,VWS V14.01,2013-02-16 15:41:00,
2013-02-16 07:46:00,29.8,27.8,30.10,East,93,3.0,3.0,92,0.00,,FEW055,0.00,VWS V14.01,2013-02-16 15:46:00,
2013-02-16 07:51:00,31.1,29.0,30.10,ENE,71,3.0,3.0,92,0.00,,FEW055,0.00,VWS V14.01,2013-02-16 15:51:00,
2013-02-16 07:57:00,31.4,29.4,30.10,ENE,69,2.0,2.0,92,0.00,,FEW055,0.00,VWS V14.01,2013-02-16 15:57:00,
2013-02-16 08:02:00,31.7,29.6,30.10,ENE,69,2.0,2.0,92,0.00,,OVC050,0.00,VWS V14.01,2013-02-16 16:02:00,
2013-02-16 08:07:00,32.0,29.9,30.10,East,90,2.0,2.0,92,0.00,,OVC050,0.00,VWS V14.01,2013-02-16 16:07:00,
2013-02-16 08:12:00,32.3,30.2,30.10,East,90,0.0,0.0,92,0.00,,OVC050,0.00,VWS V14.01,2013-02-16 16:12:00,
2013-02-16 08:17:00,32.3,30.2,30.09,East,90,0.0,0.0,92,0.00,,OVC050,0.00,VWS V14.01,2013-02-16 16:17:00,
2013-02-16 08:23:00,32.3,30.2,30.09,East,90,0.0,0.0,92,0.00,,OVC050,0.00,VWS V14.01,2013-02-16 16:23:00,
2013-02-16 08:28:00,32.3,30.2,30.09,East,90,0.0,0.0,92,0.00,,OVC050,0.00,VWS V14.01,2013-02-16 16:28:00,
2013-02-16 08:33:00,32.6,30.5,30.09,East,90,0.0,0.0,92,0.00,,OVC050,0.00,VWS V14.01,2013-02-16 16:33:00,
2013-02-16 08:38:00,32.6,30.5,30.09,East,90,0.0,0.0,92,0.00,,OVC050,0.00,VWS V14.01,2013-02-16 16:38:00,
2013-02-16 08:43:00,32.6,30.5,30.09,East,90,0.0,0.0,92,0.00,,OVC050,0.00,VWS V14.01,2013-02-16 16:43:00,
2013-02-16 08:48:00,32.6,30.5,30.09,East,90,1.0,1.0,92,0.00,,OVC050,0.00,VWS V14.01,2013-02-16 16:48:00,
2013-02-16 08:53:00,32.6,30.5,30.09,East,90,0.0,0.0,92,0.00,,OVC050,0.00,VWS V14.01,2013-02-16 16:53:00,
2013-02-16 08:58:00,33.7,31.6,30.09,East,90,1.0,1.0,92,0.00,,OVC050,0.00,VWS V14.01,2013-02-16 16:58:00,
2013-02-16 09:03:00,34.1,32.0,30.08,East,80,1.0,1.0,92,0.00,,CLR,0.00,VWS V14.01,2013-02-16 17:03:00,
2013-02-16 09:08:00,34.1,32.0,30.08,East,80,0.0,0.0,92,0.00,,CLR,0.00,VWS V14.01,2013-02-16 17:08:00,
2013-02-16 09:13:00,35.4,33.3,30.08,East,79,2.0,2.0,92,0.00,,CLR,0.00,VWS V14.01,2013-02-16 17:13:00,
2013-02-16 09:18:00,35.9,33.8,30.08,ENE,78,2.0,2.0,92,0.00,,CLR,0.00,VWS V14.01,2013-02-16 17:18:00,
2013-02-16 09:23:00,35.9,33.8,30.08,ENE,78,0.0,1.0,92,0.00,,CLR,0.00,VWS V14.01,2013-02-16 17:23:00,
2013-02-16 09:28:00,36.6,34.5,30.08,ENE,78,0.0,0.0,92,0.00,,CLR,0.00,VWS V14.01,2013-02-16 17:28:00,
2013-02-16 09:33:00,36.8,34.7,30.08,ENE,78,1.0,1.0,92,0.00,,CLR,0.00,VWS V14.01,2013-02-16 17:33:00,
2013-02-16 09:38:00,36.8,34.7,30.08,ENE,78,0.0,3.0,92,0.00,,CLR,0.00,VWS V14.01,2013-02-16 17:38:00,
2013-02-16 09:43:00,37.5,35.4,30.08,ENE,78,0.0,0.0,92,0.00,,CLR,0.00,VWS V14.01,2013-02-16 17:43:00,
2013-02-16 09:48:00,38.3,33.9,30.08,ENE,78,0.0,2.0,84,0.00,,CLR,0.00,VWS V14.01,2013-02-16 17:48:00,
2013-02-16 09:53:00,38.6,33.9,30.08,ENE,78,0.0,0.0,83,0.00,,CLR,0.00,VWS V14.01,2013-02-16 17:53:00,
2013-02-16 09:58:00,38.6,33.9,30.08,ENE,78,3.0,3.0,83,0.00,,CLR,0.00,VWS V14.01,2013-02-16 17:58:00,
2013-02-16 10:03:00,38.8,34.1,30.07,East,79,0.0,0.0,83,0.00,,SCT036,0.00,VWS V14.01,2013-02-16 18:03:00,
2013-02-16 10:08:00,38.8,34.1,30.07,East,79,0.0,0.0,83,0.00,,SCT036,0.00,VWS V14.01,2013-02-16 18:08:00,
2013-02-16 10:13:00,39.5,34.8,30.07,ESE,120,0.0,0.0,83,0.00,,SCT036,0.00,VWS V14.01,2013-02-16 18:13:00,
2013-02-16 10:18:00,40.6,35.8,30.07,East,100,2.0,2.0,83,0.00,,SCT036,0.00,VWS V14.01,2013-02-16 18:18:00,
2013-02-16 10:23:00,40.8,36.0,30.07,ENE,71,0.0,0.0,83,0.00,,SCT036,0.00,VWS V14.01,2013-02-16 18:23:00,
2013-02-16 10:28:00,41.5,36.7,30.07,ENE,71,3.0,3.0,83,0.00,,SCT036,0.00,VWS V14.01,2013-02-16 18:28:00,
2013-02-16 10:34:00,42.5,37.7,30.06,ENE,71,2.0,2.0,83,0.00,,SCT036,0.00,VWS V14.01,2013-02-16 18:34:00,
2013-02-16 10:39:00,42.5,37.7,30.06,ENE,71,0.0,0.0,83,0.00,,SCT036,0.00,VWS V14.01,2013-02-16 18:39:00,
2013-02-16 10:44:00,42.5,37.7,30.06,ENE,71,0.0,0.0,83,0.00,,SCT036,0.00,VWS V14.01,2013-02-16 18:44:00,
2013-02-16 10:49:00,43.9,39.1,30.06,ENE,71,0.0,2.0,83,0.00,,SCT036,0.00,VWS V14.01,2013-02-16 18:49:00,
2013-02-16 10:54:00,45.1,40.2,30.06,ENE,71,0.0,2.0,83,0.00,,SCT036,0.00,VWS V14.01,2013-02-16 18:54:00,
2013-02-16 10:59:00,45.2,40.3,30.06,ENE,71,0.0,1.0,83,0.00,,SCT036,0.00,VWS V14.01,2013-02-16 18:59:00,
2013-02-16 11:04:00,45.2,40.3,30.05,ENE,71,1.0,1.0,83,0.00,,OVC100,0.00,VWS V14.01,2013-02-16 19:04:00,
2013-02-16 11:09:00,45.1,40.2,30.05,ENE,71,0.0,0.0,83,0.00,,OVC100,0.00,VWS V14.01,2013-02-16 19:09:00,
2013-02-16 11:15:00,44.8,36.3,30.05,ENE,71,1.0,1.0,72,0.00,,OVC100,0.00,VWS V14.01,2013-02-16 19:15:00,
2013-02-16 11:20:00,44.6,36.2,30.04,ENE,71,0.0,0.0,72,0.00,,OVC100,0.00,VWS V14.01,2013-02-16 19:20:00,
2013-02-16 11:25:00,44.5,36.0,30.04,ENE,71,0.0,0.0,72,0.00,,OVC100,0.00,VWS V14.01,2013-02-16 19:25:00,
2013-02-16 11:30:00,44.5,36.0,30.04,ENE,71,0.0,0.0,72,0.00,,OVC100,0.00,VWS V14.01,2013-02-16 19:30:00,
2013-02-16 11:35:00,44.6,36.5,30.03,ENE,71,0.0,0.0,73,0.00,,OVC100,0.00,VWS V14.01,2013-02-16 19:35:00,
2013-02-16 11:40:00,44.9,36.4,30.03,ENE,71,0.0,0.0,72,0.00,,OVC100,0.00,VWS V14.01,2013-02-16 19:40:00,
2013-02-16 11:45:00,45.5,37.0,30.03,ENE,71,0.0,0.0,72,0.00,,OVC100,0.00,VWS V14.01,2013-02-16 19:45:00,
2013-02-16 11:50:00,45.5,36.7,30.03,ENE,71,0.0,0.0,71,0.00,,OVC100,0.00,VWS V14.01,2013-02-16 19:50:00,
2013-02-16 11:55:00,45.5,36.7,30.03,ENE,71,0.0,0.0,71,0.00,,OVC100,0.00,VWS V14.01,2013-02-16 19:55:00,
2013-02-16 12:00:00,46.1,37.2,30.03,ENE,71,0.0,0.0,71,0.00,,OVC100,0.00,VWS V14.01,2013-02-16 20:00:00,
2013-02-16 12:05:00,46.4,37.5,30.02,ENE,71,0.0,0.0,71,0.00,,OVC030,0.00,VWS V14.01,2013-02-16 20:05:00,
2013-02-16 12:10:00,46.7,37.8,30.02,NW,318,3.0,3.0,71,0.00,,OVC030,0.00,VWS V14.01,2013-02-16 20:10:00,
2013-02-16 12:15:00,47.4,38.5,30.02,SW,224,0.0,0.0,71,0.00,,OVC030,0.00,VWS V14.01,2013-02-16 20:15:00,
2013-02-16 12:20:00,47.7,38.8,30.01,SW,229,0.0,1.0,71,0.00,,OVC030,0.00,VWS V14.01,2013-02-16 20:20:00,
2013-02-16 12:26:00,47.8,38.9,30.01,West,264,0.0,0.0,71,0.00,,OVC030,0.00,VWS V14.01,2013-02-16 20:26:00,
2013-02-16 12:31:00,48.0,39.1,30.01,WNW,291,1.0,1.0,71,0.00,,OVC030,0.00,VWS V14.01,2013-02-16 20:31:00,
2013-02-16 12:36:00,48.1,39.2,30.00,WNW,291,5.0,5.0,71,0.00,,OVC030,0.00,VWS V14.01,2013-02-16 20:36:00,
2013-02-16 12:41:00,48.0,39.1,30.00,WNW,289,1.0,1.0,71,0.00,,OVC030,0.00,VWS V14.01,2013-02-16 20:41:00,
2013-02-16 12:46:00,47.8,38.9,30.00,WNW,287,1.0,1.0,71,0.00,,OVC030,0.00,VWS V14.01,2013-02-16 20:46:00,
2013-02-16 12:51:00,47.8,38.9,29.99,WNW,287,1.0,1.0,71,0.00,,OVC030,0.00,VWS V14.01,2013-02-16 20:51:00,
2013-02-16 12:56:00,47.2,38.3,29.99,WSW,256,0.0,1.0,71,0.01,,OVC030,0.01,VWS V14.01,2013-02-16 20:56:00,
2013-02-16 13:01:00,47.2,38.3,29.99,WSW,256,0.0,0.0,71,0.01,,OVC060,0.01,VWS V14.01,2013-02-16 21:01:00,
2013-02-16 13:06:00,47.1,38.2,29.98,WSW,256,0.0,0.0,71,0.01,,OVC060,0.01,VWS V14.01,2013-02-16 21:06:00,
2013-02-16 13:11:00,47.1,38.2,29.98,WSW,256,2.0,2.0,71,0.01,,OVC060,0.01,VWS V14.01,2013-02-16 21:11:00,
2013-02-16 13:16:00,47.1,38.2,29.98,West,261,0.0,5.0,71,0.01,,OVC060,0.01,VWS V14.01,2013-02-16 21:16:00,
2013-02-16 13:21:00,47.1,38.2,29.97,West,263,0.0,0.0,71,0.01,,OVC060,0.01,VWS V14.01,2013-02-16 21:21:00,
2013-02-16 13:26:00,47.2,38.3,29.97,West,263,0.0,0.0,71,0.01,,OVC060,0.01,VWS V14.01,2013-02-16 21:26:00,
2013-02-16 13:32:00,47.1,40.6,29.97,West,263,2.0,2.0,78,0.01,,OVC060,0.01,VWS V14.01,2013-02-16 21:32:00,
2013-02-16 13:37:00,47.0,40.5,29.97,WNW,287,2.0,2.0,78,0.01,,OVC060,0.01,VWS V14.01,2013-02-16 21:37:00,
2013-02-16 13:42:00,47.0,40.2,29.97,West,278,0.0,1.0,77,0.01,,OVC060,0.01,VWS V14.01,2013-02-16 21:42:00,
2013-02-16 13:47:00,46.4,39.6,29.96,West,278,1.0,2.0,77,0.01,,OVC060,0.01,VWS V14.01,2013-02-16 21:47:00,
2013-02-16 13:52:00,46.1,39.3,29.96,West,278,0.0,0.0,77,0.02,,OVC060,0.02,VWS V14.01,2013-02-16 21:52:00,
2013-02-16 13:57:00,45.9,41.3,29.96,West,278,0.0,0.0,84,0.01,,OVC060,0.02,VWS V14.01,2013-02-16 21:57:00,
2013-02-16 14:03:00,45.8,41.2,29.96,West,278,0.0,0.0,84,0.01,,OVC070,0.02,VWS V14.01,2013-02-16 22:03:00,
2013-02-16 14:08:00,45.3,41.1,29.96,West,278,0.0,0.0,85,0.02,,OVC070,0.03,VWS V14.01,2013-02-16 22:08:00,
2013-02-16 14:13:00,45.1,40.9,29.96,West,278,0.0,0.0,85,0.02,,OVC070,0.03,VWS V14.01,2013-02-16 22:13:00,
2013-02-16 14:18:00,44.9,41.0,29.96,West,278,0.0,0.0,86,0.02,,OVC070,0.03,VWS V14.01,2013-02-16 22:18:00,
2013-02-16 14:23:00,44.8,40.9,29.96,West,278,0.0,0.0,86,0.02,,OVC070,0.03,VWS V14.01,2013-02-16 22:23:00,
2013-02-16 14:28:00,44.8,41.2,29.96,West,278,0.0,0.0,87,0.02,,OVC070,0.03,VWS V14.01,2013-02-16 22:28:00,
2013-02-16 14:33:00,44.8,41.2,29.95,West,278,0.0,0.0,87,0.02,,OVC070,0.03,VWS V14.01,2013-02-16 22:33:00,
2013-02-16 14:38:00,44.8,41.5,29.95,West,278,0.0,0.0,88,0.02,,OVC070,0.03,VWS V14.01,2013-02-16 22:38:00,
2013-02-16 14:43:00,44.8,41.5,29.95,West,278,0.0,0.0,88,0.02,,OVC070,0.03,VWS V14.01,2013-02-16 22:43:00,
2013-02-16 14:48:00,44.6,41.3,29.94,West,278,2.0,2.0,88,0.02,,OVC070,0.03,VWS V14.01,2013-02-16 22:48:00,
2013-02-16 14:54:00,44.6,41.3,29.94,West,278,0.0,0.0,88,0.01,,OVC070,0.03,VWS V14.01,2013-02-16 22:54:00,
2013-02-16 14:59:00,44.6,41.3,29.94,West,278,0.0,0.0,88,0.01,,OVC070,0.03,VWS V14.01,2013-02-16 22:59:00,
2013-02-16 15:04:00,44.6,41.3,29.95,West,278,0.0,0.0,88,0.01,,OVC044,0.03,VWS V14.01,2013-02-16 23:04:00,
2013-02-16 15:09:00,44.5,41.2,29.95,WNW,292,1.0,1.0,88,0.00,,OVC044,0.03,VWS V14.01,2013-02-16 23:09:00,
2013-02-16 15:14:00,44.5,40.0,29.95,WNW,292,2.0,2.0,84,0.00,,OVC044,0.03,VWS V14.01,2013-02-16 23:14:00,
2013-02-16 15:19:00,44.3,39.8,29.94,WNW,292,0.0,1.0,84,0.00,,OVC044,0.03,VWS V14.01,2013-02-16 23:19:00,
2013-02-16 15:24:00,44.3,39.8,29.94,WNW,292,0.0,0.0,84,0.00,,OVC044,0.03,VWS V14.01,2013-02-16 23:24:00,
2013-02-16 15:30:00,44.3,39.8,29.94,WNW,292,0.0,1.0,84,0.00,,OVC044,0.03,VWS V14.01,2013-02-16 23:30:00,
2013-02-16 15:35:00,44.3,40.1,29.95,WNW,292,0.0,0.0,85,0.00,,OVC044,0.03,VWS V14.01,2013-02-16 23:35:00,
2013-02-16 15:40:00,44.2,40.0,29.95,WNW,292,0.0,0.0,85,0.00,,OVC044,0.03,VWS V14.01,2013-02-16 23:40:00,
2013-02-16 15:45:00,44.1,39.9,29.95,WNW,292,0.0,0.0,85,0.00,,OVC044,0.03,VWS V14.01,2013-02-16 23:45:00,
2013-02-16 15:50:00,44.1,39.6,29.94,WNW,292,2.0,2.0,84,0.00,,OVC044,0.03,VWS V14.01,2013-02-16 23:50:00,
2013-02-16 15:55:00,43.9,39.4,29.94,WNW,292,0.0,0.0,84,0.00,,OVC044,0.03,VWS V14.01,2013-02-16 23:55:00,
2013-02-16 16:00:00,43.9,39.4,29.94,WNW,292,0.0,0.0,84,0.00,,OVC044,0.03,VWS V14.01,2013-02-17 00:00:00,
2013-02-16 16:05:00,43.9,39.4,29.94,WNW,292,1.0,1.0,84,0.00,,OVC090,0.03,VWS V14.01,2013-02-17 00:05:00,
2013-02-16 16:10:00,43.9,39.4,29.94,WNW,292,0.0,0.0,84,0.00,,OVC090,0.03,VWS V14.01,2013-02-17 00:10:00,
2013-02-16 16:16:00,43.9,39.4,29.94,WNW,292,0.0,0.0,84,0.00,,OVC090,0.03,VWS V14.01,2013-02-17 00:16:00,
2013-02-16 16:21:00,43.8,39.3,29.94,WNW,292,0.0,0.0,84,0.00,,OVC090,0.03,VWS V14.01,2013-02-17 00:21:00,
2013-02-16 16:26:00,43.8,39.3,29.94,West,274,0.0,0.0,84,0.00,,OVC090,0.03,VWS V14.01,2013-02-17 00:26:00,
2013-02-16 16:31:00,43.9,39.4,29.94,West,274,0.0,0.0,84,0.00,,OVC090,0.03,VWS V14.01,2013-02-17 00:31:00,
2013-02-16 16:36:00,43.9,39.4,29.93,West,274,0.0,0.0,84,0.00,,OVC090,0.03,VWS V14.01,2013-02-17 00:36:00,
2013-02-16 16:41:00,43.8,39.3,29.93,West,274,0.0,0.0,84,0.00,,OVC090,0.03,VWS V14.01,2013-02-17 00:41:00,
2013-02-16 16:46:00,43.8,39.3,29.93,West,274,0.0,0.0,84,0.00,,OVC090,0.03,VWS V14.01,2013-02-17 00:46:00,
2013-02-16 16:52:00,43.9,39.4,29.93,West,274,0.0,0.0,84,0.00,,OVC090,0.03,VWS V14.01,2013-02-17 00:52:00,
2013-02-16 16:57:00,43.9,39.4,29.93,West,274,0.0,0.0,84,0.00,,OVC090,0.03,VWS V14.01,2013-02-17 00:57:00,
2013-02-16 17:02:00,43.9,39.4,29.93,West,274,0.0,0.0,84,0.00,,BKN100,0.03,VWS V14.01,2013-02-17 01:02:00,
2013-02-16 17:07:00,43.9,39.4,29.93,West,274,0.0,0.0,84,0.00,,BKN100,0.03,VWS V14.01,2013-02-17 01:07:00,
2013-02-16 17:12:00,43.8,39.3,29.93,West,274,0.0,0.0,84,0.00,,BKN100,0.03,VWS V14.01,2013-02-17 01:12:00,
2013-02-16 17:17:00,43.8,39.3,29.93,West,274,0.0,0.0,84,0.00,,BKN100,0.03,VWS V14.01,2013-02-17 01:17:00,
2013-02-16 17:22:00,43.6,39.1,29.93,West,274,0.0,0.0,84,0.00,,BKN100,0.03,VWS V14.01,2013-02-17 01:22:00,
2013-02-16 17:27:00,43.6,39.1,29.93,West,274,0.0,0.0,84,0.00,,BKN100,0.03,VWS V14.01,2013-02-17 01:27:00,
2013-02-16 17:32:00,43.5,39.0,29.93,West,274,0.0,0.0,84,0.00,,BKN100,0.03,VWS V14.01,2013-02-17 01:32:00,
2013-02-16 17:37:00,43.5,38.4,29.93,West,274,0.0,0.0,82,0.00,,BKN100,0.03,VWS V14.01,2013-02-17 01:37:00,
2013-02-16 17:42:00,43.1,38.0,29.93,West,274,0.0,0.0,82,0.00,,BKN100,0.03,VWS V14.01,2013-02-17 01:42:00,
2013-02-16 17:47:00,42.9,37.8,29.93,West,274,0.0,0.0,82,0.00,,BKN100,0.03,VWS V14.01,2013-02-17 01:47:00,
2013-02-16 17:52:00,42.8,37.7,29.93,West,274,0.0,0.0,82,0.00,,BKN100,0.03,VWS V14.01,2013-02-17 01:52:00,
2013-02-16 17:57:00,42.6,37.5,29.93,West,274,0.0,0.0,82,0.00,,BKN100,0.03,VWS V14.01,2013-02-17 01:57:00,
2013-02-16 18:02:00,42.5,37.4,29.92,West,274,0.0,0.0,82,0.00,,BKN090,0.03,VWS V14.01,2013-02-17 02:02:00,
2013-02-16 18:08:00,42.3,37.5,29.92,West,274,0.0,0.0,83,0.00,,BKN090,0.03,VWS V14.01,2013-02-17 02:08:00,
2013-02-16 18:13:00,42.2,37.7,29.92,West,274,0.0,0.0,84,0.00,,BKN090,0.03,VWS V14.01,2013-02-17 02:13:00,
2013-02-16 18:18:00,42.1,37.6,29.92,West,274,0.0,0.0,84,0.00,,BKN090,0.03,VWS V14.01,2013-02-17 02:18:00,
2013-02-16 18:23:00,41.9,37.4,29.92,West,274,0.0,0.0,84,0.00,,BKN090,0.03,VWS V14.01,2013-02-17 02:23:00,
2013-02-16 18:28:00,41.6,37.4,29.92,West,274,0.0,0.0,85,0.00,,BKN090,0.03,VWS V14.01,2013-02-17 02:28:00,
2013-02-16 18:33:00,41.6,37.4,29.91,West,274,0.0,0.0,85,0.00,,BKN090,0.03,VWS V14.01,2013-02-17 02:33:00,
2013-02-16 18:38:00,41.6,37.4,29.91,West,274,0.0,0.0,85,0.00,,BKN090,0.03,VWS V14.01,2013-02-17 02:38:00,
2013-02-16 18:43:00,41.6,37.4,29.91,West,274,0.0,0.0,85,0.00,,BKN090,0.03,VWS V14.01,2013-02-17 02:43:00,
2013-02-16 18:48:00,41.6,37.4,29.91,West,274,0.0,0.0,85,0.00,,BKN090,0.03,VWS V14.01,2013-02-17 02:48:00,
2013-02-16 18:53:00,41.6,37.4,29.91,West,274,0.0,0.0,85,0.00,,BKN090,0.03,VWS V14.01,2013-02-17 02:53:00,
2013-02-16 18:58:00,41.6,37.4,29.91,West,274,0.0,0.0,85,0.00,,BKN090,0.03,VWS V14.01,2013-02-17 02:58:00,
2013-02-16 19:03:00,41.6,37.4,29.91,West,274,0.0,0.0,85,0.00,,BKN060,0.03,VWS V14.01,2013-02-17 03:03:00,
2013-02-16 19:08:00,41.6,37.4,29.91,West,274,0.0,0.0,85,0.00,,BKN060,0.03,VWS V14.01,2013-02-17 03:08:00,
2013-02-16 19:13:00,41.6,37.4,29.91,West,274,0.0,0.0,85,0.00,,BKN060,0.03,VWS V14.01,2013-02-17 03:13:00,
2013-02-16 19:18:00,41.6,37.4,29.90,West,274,0.0,0.0,85,0.00,,BKN060,0.03,VWS V14.01,2013-02-17 03:18:00,
2013-02-16 19:23:00,41.3,37.1,29.90,West,274,0.0,0.0,85,0.00,,BKN060,0.03,VWS V14.01,2013-02-17 03:23:00,
2013-02-16 19:28:00,41.2,37.0,29.90,West,274,0.0,0.0,85,0.00,,BKN060,0.03,VWS V14.01,2013-02-17 03:28:00,
2013-02-16 19:33:00,41.2,37.0,29.90,West,274,0.0,0.0,85,0.00,,BKN060,0.03,VWS V14.01,2013-02-17 03:33:00,
2013-02-16 19:38:00,40.9,36.8,29.90,West,274,0.0,0.0,85,0.00,,BKN060,0.03,VWS V14.01,2013-02-17 03:38:00,
2013-02-16 19:43:00,40.8,37.2,29.90,West,274,0.0,0.0,87,0.00,,BKN060,0.03,VWS V14.01,2013-02-17 03:43:00,
2013-02-16 19:48:00,40.9,37.3,29.90,West,274,0.0,0.0,87,0.00,,BKN060,0.03,VWS V14.01,2013-02-17 03:48:00,
2013-02-16 19:53:00,40.9,37.3,29.90,West,274,0.0,0.0,87,0.00,,BKN060,0.03,VWS V14.01,2013-02-17 03:53:00,
2013-02-16 19:58:00,40.9,37.3,29.90,West,274,0.0,0.0,87,0.00,,BKN060,0.03,VWS V14.01,2013-02-17 03:58:00,
2013-02-16 20:03:00,40.6,37.0,29.90,West,274,0.0,0.0,87,0.00,,CLR,0.03,VWS V14.01,2013-02-17 04:03:00,
2013-02-16 20:08:00,40.5,36.7,29.90,West,272,0.0,0.0,86,0.00,,CLR,0.03,VWS V14.01,2013-02-17 04:08:00,
2013-02-16 20:13:00,40.1,36.3,29.90,West,274,0.0,0.0,86,0.00,,CLR,0.03,VWS V14.01,2013-02-17 04:13:00,
2013-02-16 20:19:00,40.1,36.3,29.89,West,274,0.0,0.0,86,0.00,,CLR,0.03,VWS V14.01,2013-02-17 04:19:00,
2013-02-16 20:24:00,39.5,35.7,29.89,West,272,1.0,1.0,86,0.00,,CLR,0.03,VWS V14.01,2013-02-17 04:24:00,
2013-02-16 20:29:00,39.5,35.7,29.89,West,274,1.0,1.0,86,0.00,,CLR,0.03,VWS V14.01,2013-02-17 04:29:00,
2013-02-16 20:34:00,39.5,35.7,29.89,West,274,0.0,0.0,86,0.00,,CLR,0.03,VWS V14.01,2013-02-17 04:34:00,
2013-02-16 20:39:00,39.0,35.2,29.89,West,274,0.0,0.0,86,0.00,,CLR,0.03,VWS V14.01,2013-02-17 04:39:00,
2013-02-16 20:44:00,39.0,35.2,29.89,West,274,0.0,0.0,86,0.00,,CLR,0.03,VWS V14.01,2013-02-17 04:44:00,
2013-02-16 20:49:00,38.8,35.0,29.90,West,270,0.0,0.0,86,0.00,,CLR,0.03,VWS V14.01,2013-02-17 04:49:00,
2013-02-16 20:54:00,38.8,35.0,29.90,West,270,1.0,1.0,86,0.00,,CLR,0.03,VWS V14.01,2013-02-17 04:54:00,
2013-02-16 21:00:00,38.9,35.1,29.90,West,270,0.0,0.0,86,0.00,,CLR,0.03,VWS V14.01,2013-02-17 05:00:00,
2013-02-16 21:01:00,38.9,35.1,29.90,West,270,0.0,0.0,86,0.00,,CLR,0.03,VWS V14.01,2013-02-17 05:01:00,
2013-02-16 21:06:00,38.9,35.1,29.90,West,270,0.0,0.0,86,0.00,,OVC095,0.03,VWS V14.01,2013-02-17 05:06:00,
2013-02-16 21:11:00,38.9,35.1,29.90,West,270,0.0,0.0,86,0.00,,OVC095,0.03,VWS V14.01,2013-02-17 05:11:00,
2013-02-16 21:16:00,38.9,35.1,29.90,West,270,0.0,0.0,86,0.00,,OVC095,0.03,VWS V14.01,2013-02-17 05:16:00,
2013-02-16 21:21:00,38.8,35.0,29.91,West,270,0.0,0.0,86,0.00,,OVC095,0.03,VWS V14.01,2013-02-17 05:21:00,
2013-02-16 21:26:00,38.8,34.1,29.91,West,270,0.0,0.0,83,0.00,,OVC095,0.03,VWS V14.01,2013-02-17 05:26:00,
2013-02-16 21:31:00,38.8,34.1,29.91,West,270,0.0,0.0,83,0.00,,OVC095,0.03,VWS V14.01,2013-02-17 05:31:00,
2013-02-16 21:36:00,38.8,34.1,29.91,West,270,0.0,0.0,83,0.00,,OVC095,0.03,VWS V14.01,2013-02-17 05:36:00,
2013-02-16 21:41:00,38.8,33.5,29.91,West,270,0.0,0.0,81,0.00,,OVC095,0.03,VWS V14.01,2013-02-17 05:41:00,
2013-02-16 21:46:00,38.8,33.5,29.91,West,270,0.0,0.0,81,0.00,,OVC095,0.03,VWS V14.01,2013-02-17 05:46:00,
2013-02-16 21:51:00,38.5,33.2,29.91,West,270,0.0,0.0,81,0.00,,OVC095,0.03,VWS V14.01,2013-02-17 05:51:00,
2013-02-16 21:56:00,38.5,33.2,29.91,West,270,0.0,0.0,81,0.00,,OVC095,0.03,VWS V14.01,2013-02-17 05:56:00,
2013-02-16 22:01:00,38.6,32.3,29.92,West,270,0.0,0.0,78,0.00,,OVC095,0.03,VWS V14.01,2013-02-17 06:01:00,
2013-02-16 22:07:00,38.5,31.9,29.92,West,270,0.0,0.0,77,0.00,,OVC100,0.03,VWS V14.01,2013-02-17 06:07:00,
2013-02-16 22:12:00,38.5,31.9,29.92,West,270,0.0,0.0,77,0.00,,OVC100,0.03,VWS V14.01,2013-02-17 06:12:00,
2013-02-16 22:17:00,38.5,31.9,29.91,West,270,0.0,0.0,77,0.00,,OVC100,0.03,VWS V14.01,2013-02-17 06:17:00,
2013-02-16 22:22:00,38.2,31.6,29.91,West,270,0.0,0.0,77,0.00,,OVC100,0.03,VWS V14.01,2013-02-17 06:22:00,
2013-02-16 22:27:00,38.2,32.0,29.91,West,270,0.0,0.0,78,0.00,,OVC100,0.03,VWS V14.01,2013-02-17 06:27:00,
2013-02-16 22:32:00,38.2,32.0,29.93,West,270,0.0,0.0,78,0.00,,OVC100,0.03,VWS V14.01,2013-02-17 06:32:00,
2013-02-16 22:37:00,38.2,32.0,29.93,West,270,0.0,0.0,78,0.00,,OVC100,0.03,VWS V14.01,2013-02-17 06:37:00,
2013-02-16 22:42:00,38.2,32.0,29.93,West,270,0.0,0.0,78,0.00,,OVC100,0.03,VWS V14.01,2013-02-17 06:42:00,
2013-02-16 22:47:00,38.2,32.0,29.91,West,270,0.0,0.0,78,0.00,,OVC100,0.03,VWS V14.01,2013-02-17 06:47:00,
2013-02-16 22:52:00,38.0,31.8,29.91,West,270,0.0,0.0,78,0.00,,OVC100,0.03,VWS V14.01,2013-02-17 06:52:00,
2013-02-16 22:58:00,37.9,31.7,29.91,West,270,0.0,0.0,78,0.00,,OVC100,0.03,VWS V14.01,2013-02-17 06:58:00,
2013-02-16 23:03:00,37.9,31.7,29.92,West,270,0.0,0.0,78,0.00,,BKN080,0.03,VWS V14.01,2013-02-17 07:03:00,
2013-02-16 23:08:00,37.6,31.7,29.92,West,270,0.0,0.0,79,0.00,,BKN080,0.03,VWS V14.01,2013-02-17 07:08:00,
2013-02-16 23:13:00,37.5,31.6,29.92,West,270,0.0,0.0,79,0.00,,BKN080,0.03,VWS V14.01,2013-02-17 07:13:00,
2013-02-16 23:18:00,37.2,31.6,29.92,West,270,0.0,0.0,80,0.00,,BKN080,0.03,VWS V14.01,2013-02-17 07:18:00,
2013-02-16 23:23:00,37.2,31.6,29.92,West,270,0.0,0.0,80,0.00,,BKN080,0.03,VWS V14.01,2013-02-17 07:23:00,
2013-02-16 23:28:00,37.2,31.6,29.92,West,270,0.0,0.0,80,0.00,,BKN080,0.03,VWS V14.01,2013-02-17 07:28:00,
2013-02-16 23:33:00,36.8,31.2,29.93,West,270,0.0,0.0,80,0.00,,BKN080,0.03,VWS V14.01,2013-02-17 07:33:00,
2013-02-16 23:38:00,36.5,30.9,29.93,West,270,0.0,0.0,80,0.00,,BKN080,0.03,VWS V14.01,2013-02-17 07:38:00,
2013-02-16 23:43:00,36.2,30.6,29.93,West,270,0.0,0.0,80,0.00,,BKN080,0.03,VWS V14.01,2013-02-17 07:43:00,
2013-02-16 23:49:00,35.9,30.6,29.93,West,270,0.0,0.0,81,0.00,,BKN080,0.03,VWS V14.01,2013-02-17 07:49:00,
2013-02-16 23:54:00,35.9,30.6,29.93,West,270,0.0,0.0,81,0.00,,BKN080,0.03,VWS V14.01,2013-02-17 07:54:00,
2013-02-16 23:59:00,35.7,30.5,29.93,West,270,0.0,0.0,81,0.00,,BKN080,0.03,VWS V14.01,2013-02-17 07:59:00,